Time;durP1;ratioP1;P1;durP2;ratioP2;P2;SDS_P1;SDS_P2;PMS_P1;PMS_P2;Temp;Humidity;BMP_temperature;BMP_pressure;BME280_temperature;BME280_humidity;BME280_pressure;Samples;Min_cycle;Max_cycle;Signal;HPM_P1;HPM_P2
2022/11/18 00:00:13;;;;;;;12.83;8.53;;;;;;;4.11;100.00;98601.84;5054289;28;20179;-85
2022/11/18 00:02:38;;;;;;;4.33;4.00;;;;;;;4.09;100.00;98602.19;5054118;28;20700;-85
2022/11/18 00:05:04;;;;;;;17.03;8.33;;;;;;;4.08;100.00;98603.28;5052917;28;20317;-85
2022/11/18 00:07:29;;;;;;;3.07;2.87;;;;;;;4.08;100.00;98608.69;5054178;28;20201;-85
2022/11/18 00:09:54;;;;;;;8.90;5.77;;;;;;;4.07;100.00;98601.69;5053828;28;20222;-83
2022/11/18 00:15:04;;;;;;;2.23;2.03;;;;;;;4.07;100.00;98603.59;5053957;28;20186;-82
2022/11/18 00:17:31;;;;;;;12.40;7.77;;;;;;;4.03;100.00;98595.31;5054006;28;20627;-86
2022/11/18 00:19:56;;;;;;;9.00;6.43;;;;;;;4.01;100.00;98600.22;5053929;28;20639;-86
2022/11/18 00:22:22;;;;;;;2.07;1.93;;;;;;;4.03;100.00;98594.50;5053859;28;20171;-83
2022/11/18 00:24:47;;;;;;;3.83;3.53;;;;;;;4.04;100.00;98601.50;5053784;28;20183;-85
2022/11/18 00:27:12;;;;;;;6.90;4.60;;;;;;;4.02;100.00;98604.53;5053700;28;20186;-80
2022/11/18 00:29:38;;;;;;;5.37;4.87;;;;;;;4.03;100.00;98618.81;5053702;28;20247;-84
2022/11/18 00:32:04;;;;;;;3.23;3.03;;;;;;;4.07;100.00;98598.19;5053900;28;20254;-86
2022/11/18 00:34:29;;;;;;;1.53;1.43;;;;;;;4.03;100.00;98595.31;5053375;28;20241;-86
2022/11/18 00:36:54;;;;;;;7.00;5.30;;;;;;;3.99;100.00;98601.66;5053741;28;20183;-86
2022/11/18 00:39:20;;;;;;;9.67;5.03;;;;;;;3.98;100.00;98611.66;5053632;28;20175;-83
2022/11/18 00:44:30;;;;;;;7.93;2.57;;;;;;;4.00;100.00;98620.25;5053652;28;20193;-87
2022/11/18 00:46:56;;;;;;;5.77;5.20;;;;;;;4.00;100.00;98616.75;5053740;28;20267;-86
2022/11/18 00:49:22;;;;;;;6.70;4.57;;;;;;;4.00;100.00;98622.94;5052061;28;20180;-86
2022/11/18 00:51:47;;;;;;;8.23;4.20;;;;;;;3.99;100.00;98615.97;5053234;28;20175;-84
2022/11/18 00:54:12;;;;;;;2.83;2.00;;;;;;;4.01;100.00;98623.75;5053189;28;20206;-87
2022/11/18 00:56:38;;;;;;;2.40;2.20;;;;;;;4.01;100.00;98631.84;5053222;28;20207;-87
2022/11/18 00:59:03;;;;;;;1.53;1.47;;;;;;;4.00;100.00;98622.16;5053249;28;20175;-81
2022/11/18 01:01:28;;;;;;;6.33;5.80;;;;;;;3.99;100.00;98628.69;5053155;28;20183;-83
2022/11/18 01:03:54;;;;;;;0.77;0.70;;;;;;;4.02;100.00;98633.44;5050724;28;20183;-82
2022/11/18 01:06:19;;;;;;;1.43;1.33;;;;;;;4.05;100.00;98635.50;5052912;28;20175;-86
2022/11/18 01:08:44;;;;;;;3.73;3.00;;;;;;;4.03;100.00;98643.16;5052954;28;20221;-87
2022/11/18 01:13:54;;;;;;;7.20;5.33;;;;;;;4.01;100.00;98648.06;5052787;28;20256;-85
2022/11/18 01:16:25;;;;;;;7.63;6.93;;;;;;;3.99;100.00;98663.78;5052862;28;20626;-85
2022/11/18 01:18:50;;;;;;;1.77;1.67;;;;;;;4.02;100.00;98665.88;5052825;28;20175;-82
2022/11/18 01:21:16;;;;;;;7.13;2.53;;;;;;;4.02;100.00;98668.56;5052603;28;20500;-85
2022/11/18 01:23:43;;;;;;;1.43;1.30;;;;;;;4.02;100.00;98668.56;5052681;28;20216;-87
2022/11/18 01:26:10;;;;;;;2.13;1.93;;;;;;;4.03;100.00;98665.56;5052628;28;20176;-84
2022/11/18 01:28:36;;;;;;;6.23;4.07;;;;;;;4.03;100.00;98668.25;5052652;28;20363;-86
2022/11/18 01:31:06;;;;;;;2.33;2.23;;;;;;;4.05;100.00;98667.94;5052631;28;20355;-82
2022/11/18 01:33:31;;;;;;;4.30;3.23;;;;;;;4.02;100.00;98663.97;5033872;28;20561;-82
2022/11/18 01:35:56;;;;;;;3.87;3.57;;;;;;;4.04;100.00;98680.66;5052665;28;20260;-87
2022/11/18 01:38:22;;;;;;;4.27;2.80;;;;;;;4.03;100.00;98683.69;5052406;28;20171;-87
2022/11/18 01:40:47;;;;;;;2.07;1.97;;;;;;;4.07;100.00;98684.66;5052477;28;20182;-86
2022/11/18 01:43:17;;;;;;;2.50;2.30;;;;;;;4.02;100.00;98687.47;5052277;28;20194;-87
2022/11/18 01:45:44;;;;;;;0.67;0.67;;;;;;;4.03;100.00;98689.06;5052523;28;20187;-88
2022/11/18 01:48:17;;;;;;;3.07;2.83;;;;;;;4.01;100.00;98691.28;5052371;28;20186;-86
2022/11/18 01:50:53;;;;;;;9.40;7.13;;;;;;;3.99;100.00;98690.81;5052592;28;20225;-84
2022/11/18 01:53:26;;;;;;;3.17;2.60;;;;;;;3.99;100.00;98693.50;5034167;28;20815;-83
2022/11/18 01:55:54;;;;;;;4.70;3.37;;;;;;;3.97;100.00;98698.44;5052150;28;20164;-86
2022/11/18 01:58:29;;;;;;;8.30;6.30;;;;;;;3.98;100.00;98698.13;5051964;28;20183;-83
2022/11/18 02:00:54;;;;;;;3.77;3.37;;;;;;;3.99;100.00;98698.91;5052092;28;20202;-83
2022/11/18 02:03:21;;;;;;;2.20;1.90;;;;;;;3.97;100.00;98699.22;5051880;28;20736;-87
2022/11/18 02:05:49;;;;;;;5.03;4.53;;;;;;;3.94;100.00;98705.25;5051829;28;20313;-81
2022/11/18 02:08:16;;;;;;;6.43;5.53;;;;;;;3.95;100.00;98706.84;5051929;28;20186;-84
2022/11/18 02:10:41;;;;;;;1.23;1.20;;;;;;;3.92;100.00;98702.06;5051594;28;20183;-87
2022/11/18 02:13:07;;;;;;;1.47;1.23;;;;;;;3.94;100.00;98704.47;5051552;28;20199;-80
2022/11/18 02:15:51;;;;;;;1.90;1.43;;;;;;;3.95;100.00;98706.06;5051573;28;20186;-81
2022/11/18 02:18:24;;;;;;;2.70;2.53;;;;;;;3.94;100.00;98701.78;5051782;28;20752;-82
2022/11/18 02:20:59;;;;;;;4.00;3.63;;;;;;;3.93;100.00;98700.97;5051695;28;20172;-87
2022/11/18 02:23:39;;;;;;;7.43;6.67;;;;;;;3.92;100.00;98702.06;5052402;28;20205;-78
2022/11/18 02:26:53;;;;;;;6.33;5.70;;;;;;;3.87;100.00;98699.50;5053432;28;20611;-78
2022/11/18 02:29:31;;;;;;;7.60;3.83;;;;;;;3.86;100.00;98714.09;5052794;28;20187;-78
2022/11/18 02:32:23;;;;;;;2.40;1.87;;;;;;;3.85;100.00;98710.59;5051584;28;20233;-78
2022/11/18 02:34:57;;;;;;;12.57;8.77;;;;;;;3.84;100.00;98716.31;5050817;28;20221;-77
2022/11/18 02:37:52;;;;;;;5.77;5.30;;;;;;;3.86;100.00;98724.91;5051275;28;20167;-76
2022/11/18 02:40:49;;;;;;;6.97;4.80;;;;;;;3.84;100.00;98732.53;5051158;28;20657;-78
2022/11/18 02:43:20;;;;;;;2.77;2.67;;;;;;;3.85;100.00;98734.13;5038800;28;20183;-78
2022/11/18 02:45:49;;;;;;;2.77;1.20;;;;;;;3.86;100.00;98735.72;5051037;28;20176;-77
2022/11/18 02:48:18;;;;;;;3.70;3.40;;;;;;;3.86;100.00;98736.50;5051048;28;20167;-78
2022/11/18 02:50:47;;;;;;;6.90;5.83;;;;;;;3.85;100.00;98736.81;5051121;28;20216;-77
2022/11/18 02:53:17;;;;;;;9.03;4.13;;;;;;;3.86;100.00;98739.22;5050940;28;20697;-78
2022/11/18 02:55:44;;;;;;;2.90;2.70;;;;;;;3.85;100.00;98736.81;5050966;28;20203;-78
2022/11/18 02:58:11;;;;;;;6.80;5.70;;;;;;;3.84;100.00;98741.44;5032979;28;20756;-77
2022/11/18 03:00:37;;;;;;;4.73;4.30;;;;;;;3.84;100.00;98746.03;5050933;28;20175;-78
2022/11/18 03:03:24;;;;;;;1.90;1.80;;;;;;;3.85;100.00;98747.63;5050828;28;20181;-77
2022/11/18 03:06:18;;;;;;;7.30;6.60;;;;;;;3.81;100.00;98743.97;5050766;28;20328;-79
2022/11/18 03:08:54;;;;;;;1.90;1.77;;;;;;;3.82;100.00;98745.56;5050813;28;20183;-77
2022/11/18 03:11:23;;;;;;;12.20;1.60;;;;;;;3.83;100.00;98752.53;5050760;28;20225;-77
2022/11/18 03:14:08;;;;;;;4.10;3.73;;;;;;;3.80;100.00;98755.88;5050660;28;20203;-79
2022/11/18 03:16:41;;;;;;;0.73;0.63;;;;;;;3.76;100.00;98746.75;5050837;28;20222;-77
2022/11/18 03:19:18;;;;;;;4.80;4.40;;;;;;;3.73;100.00;98750.09;5050553;28;20190;-78
2022/11/18 03:22:02;;;;;;;1.00;0.97;;;;;;;3.71;100.00;98753.09;5050806;28;20186;-77
2022/11/18 03:24:31;;;;;;;4.70;3.80;;;;;;;3.68;100.00;98744.81;5050634;28;20186;-79
2022/11/18 03:27:13;;;;;;;5.63;3.13;;;;;;;3.65;100.00;98751.66;5050056;28;20175;-78
2022/11/18 03:29:46;;;;;;;6.27;4.80;;;;;;;3.61;100.00;98752.53;5050549;28;20182;-77
2022/11/18 03:32:18;;;;;;;11.57;6.73;;;;;;;3.58;100.00;98760.16;5050627;28;20159;-81
2022/11/18 03:34:49;;;;;;;8.03;5.53;;;;;;;3.58;100.00;98768.25;5050500;28;20183;-78
2022/11/18 03:37:18;;;;;;;7.23;3.43;;;;;;;3.55;100.00;98776.97;5050417;28;20677;-78
2022/11/18 03:39:50;;;;;;;4.47;3.57;;;;;;;3.53;100.00;98779.19;5050447;28;20233;-78
2022/11/18 03:42:27;;;;;;;11.23;5.83;;;;;;;3.51;100.00;98788.69;5050708;28;20580;-78
2022/11/18 03:45:02;;;;;;;2.43;2.23;;;;;;;3.55;100.00;98792.38;5050345;28;20684;-77
2022/11/18 03:47:32;;;;;;;1.43;1.33;;;;;;;3.53;100.00;98798.09;5050348;28;20178;-77
2022/11/18 03:50:07;;;;;;;7.10;2.90;;;;;;;3.53;100.00;98806.19;5050415;28;20178;-77
2022/11/18 03:52:35;;;;;;;6.43;3.33;;;;;;;3.53;100.00;98803.47;5050292;28;20175;-80
2022/11/18 03:55:07;;;;;;;2.63;2.43;;;;;;;3.52;100.00;98815.38;5050385;28;20218;-78
2022/11/18 03:57:50;;;;;;;10.30;6.43;;;;;;;3.49;100.00;98813.31;5050322;28;20175;-77
2022/11/18 04:00:17;;;;;;;0.73;0.73;;;;;;;3.52;100.00;98812.69;5050349;28;20179;-77
2022/11/18 04:02:44;;;;;;;2.77;2.43;;;;;;;3.50;100.00;98817.59;5050683;28;20207;-77
2022/11/18 04:05:12;;;;;;;6.80;5.40;;;;;;;3.46;100.00;98818.50;5050408;28;20218;-79
2022/11/18 04:07:59;;;;;;;4.77;4.27;;;;;;;3.45;100.00;98820.41;5050381;28;20708;-81
2022/11/18 04:10:33;;;;;;;2.30;2.20;;;;;;;3.44;100.00;98818.00;5050339;28;20179;-77
2022/11/18 04:13:28;;;;;;;7.80;4.13;;;;;;;3.41;100.00;98818.63;5050068;28;20209;-82
2022/11/18 04:15:54;;;;;;;5.30;4.90;;;;;;;3.39;100.00;98823.53;5050406;28;20179;-78
2022/11/18 04:18:20;;;;;;;7.03;5.40;;;;;;;3.37;100.00;98831.13;5050208;28;20175;-81
2022/11/18 04:20:45;;;;;;;7.47;5.47;;;;;;;3.37;100.00;98829.22;5050492;28;20207;-82
2022/11/18 04:23:11;;;;;;;4.67;3.27;;;;;;;3.37;100.00;98831.13;5049784;28;20174;-80
2022/11/18 04:25:36;;;;;;;3.10;2.90;;;;;;;3.38;100.00;98828.13;5050333;28;20176;-77
2022/11/18 04:28:02;;;;;;;4.17;3.47;;;;;;;3.32;100.00;98826.63;5050184;28;20646;-79
2022/11/18 04:30:27;;;;;;;2.10;1.93;;;;;;;3.31;100.00;98835.81;5050092;28;20615;-81
2022/11/18 04:32:53;;;;;;;4.73;4.20;;;;;;;3.27;100.00;98835.63;5049892;28;20209;-77
2022/11/18 04:35:18;;;;;;;8.83;6.00;;;;;;;3.27;100.00;98834.84;5049729;28;20179;-79
2022/11/18 04:37:43;;;;;;;2.97;2.60;;;;;;;3.27;100.00;98826.75;5050658;28;20270;-78
2022/11/18 04:40:09;;;;;;;17.30;10.33;;;;;;;3.22;100.00;98835.75;5053598;28;20183;-80
2022/11/18 04:42:34;;;;;;;3.03;2.80;;;;;;;3.22;100.00;98846.56;5053380;28;20492;-77
2022/11/18 04:45:00;;;;;;;3.23;3.03;;;;;;;3.22;100.00;98841.16;5052176;28;20179;-79
2022/11/18 04:47:25;;;;;;;6.90;4.37;;;;;;;3.21;100.00;98839.56;5053434;28;20689;-81
2022/11/18 04:49:50;;;;;;;2.97;2.30;;;;;;;3.21;100.00;98836.06;5053283;28;20183;-79
2022/11/18 04:52:16;;;;;;;4.30;3.10;;;;;;;3.23;100.00;98842.75;5053508;28;20179;-79
2022/11/18 04:54:41;;;;;;;1.13;1.13;;;;;;;3.24;100.00;98843.53;5053769;28;20217;-77
2022/11/18 04:57:06;;;;;;;3.97;3.63;;;;;;;3.23;100.00;98847.34;5051946;28;20199;-78
2022/11/18 04:59:32;;;;;;;3.77;3.47;;;;;;;3.21;100.00;98844.16;5053246;28;20706;-78
2022/11/18 05:01:59;;;;;;;5.17;4.10;;;;;;;3.23;100.00;98845.44;5053114;28;20171;-81
2022/11/18 05:04:28;;;;;;;4.80;3.37;;;;;;;3.24;100.00;98857.84;5052997;28;20266;-81
2022/11/18 05:06:55;;;;;;;0.40;0.40;;;;;;;3.24;100.00;98846.25;5052992;28;20179;-81
2022/11/18 05:09:20;;;;;;;1.93;1.73;;;;;;;3.24;100.00;98848.94;5052689;28;20669;-77
2022/11/18 05:14:30;;;;;;;5.67;3.70;;;;;;;3.19;100.00;98852.56;5052770;28;20572;-78
2022/11/18 05:16:58;;;;;;;3.23;1.57;;;;;;;3.15;100.00;98853.44;5052598;28;20175;-78
2022/11/18 05:19:23;;;;;;;5.17;3.10;;;;;;;3.14;100.00;98858.03;5052590;28;20186;-81
2022/11/18 05:21:49;;;;;;;2.67;2.37;;;;;;;3.15;100.00;98856.13;5053125;28;20179;-78
2022/11/18 05:24:15;;;;;;;1.53;1.43;;;;;;;3.17;100.00;98860.13;5052648;28;20262;-79
2022/11/18 05:26:40;;;;;;;1.77;1.20;;;;;;;3.18;100.00;98869.03;5052783;28;20183;-81
2022/11/18 05:29:05;;;;;;;7.37;3.10;;;;;;;3.16;100.00;98871.22;5052823;28;20175;-81
2022/11/18 05:31:31;;;;;;;2.87;2.57;;;;;;;3.12;100.00;98870.25;5052521;28;20539;-80
2022/11/18 05:33:56;;;;;;;5.03;4.10;;;;;;;3.08;100.00;98874.66;5052266;28;20203;-81
2022/11/18 05:36:21;;;;;;;3.17;2.97;;;;;;;3.10;100.00;98867.03;5052637;28;20175;-80
2022/11/18 05:38:48;;;;;;;3.17;2.93;;;;;;;3.00;100.00;98878.81;5052390;28;20175;-78
2022/11/18 05:43:09;;;;;;;4.27;3.87;;;;;;;2.97;100.00;98877.53;5052464;28;20175;-77
2022/11/18 05:44:00;;;;;;;1.90;1.80;;;;;;;2.94;100.00;98888.13;5051973;28;20248;-78
2022/11/18 05:46:26;;;;;;;2.40;2.20;;;;;;;2.91;100.00;98881.44;5052395;28;20712;-77
2022/11/18 05:48:51;;;;;;;4.10;3.80;;;;;;;2.92;100.00;98896.53;5034035;28;20175;-79
2022/11/18 05:51:17;;;;;;;6.13;4.37;;;;;;;2.90;100.00;98895.22;5052273;28;20183;-77
2022/11/18 05:53:43;;;;;;;7.27;4.33;;;;;;;2.87;100.00;98901.19;5051961;28;20242;-78
2022/11/18 05:56:35;;;;;;;7.00;5.07;;;;;;;2.87;100.00;98888.50;5051985;28;20176;-78
2022/11/18 05:59:01;;;;;;;10.53;8.40;;;;;;;2.85;100.00;98898.00;5052199;28;20749;-77
2022/11/18 06:01:28;;;;;;;1.53;1.43;;;;;;;2.87;100.00;98902.00;5052364;28;20266;-78
2022/11/18 06:03:53;;;;;;;5.83;5.30;;;;;;;2.88;100.00;98902.78;5051878;28;20213;-78
2022/11/18 06:06:21;;;;;;;2.33;2.17;;;;;;;2.88;100.00;98913.59;5052288;28;20195;-77
2022/11/18 06:08:54;;;;;;;2.43;2.10;;;;;;;2.88;100.00;98916.28;5051879;28;20266;-77
2022/11/18 06:11:20;;;;;;;23.03;4.23;;;;;;;2.85;100.00;98916.88;5051930;28;20513;-78
2022/11/18 06:14:08;;;;;;;5.40;2.00;;;;;;;2.87;100.00;98923.56;5051527;28;20199;-77
2022/11/18 06:16:35;;;;;;;5.93;5.30;;;;;;;2.85;100.00;98922.28;5051769;28;20183;-76
2022/11/18 06:19:02;;;;;;;8.17;4.97;;;;;;;2.83;100.00;98925.28;5051615;28;20163;-77
2022/11/18 06:21:28;;;;;;;3.90;3.57;;;;;;;2.81;100.00;98926.69;5051776;28;20171;-77
2022/11/18 06:23:54;;;;;;;8.13;4.90;;;;;;;2.79;100.00;98923.47;5051701;28;20175;-77
2022/11/18 06:26:19;;;;;;;1.23;1.20;;;;;;;2.80;100.00;98931.25;5051729;28;20191;-78
2022/11/18 06:28:47;;;;;;;4.07;3.53;;;;;;;2.78;100.00;98930.78;5033993;28;20178;-78
2022/11/18 06:31:12;;;;;;;2.40;2.03;;;;;;;2.76;100.00;98929.47;5051506;28;20175;-77
2022/11/18 06:33:38;;;;;;;2.33;0.50;;;;;;;2.74;100.00;98934.34;5051258;28;20226;-76
2022/11/18 06:36:03;;;;;;;3.77;1.87;;;;;;;2.68;100.00;98939.03;5051508;28;20662;-77
2022/11/18 06:38:29;;;;;;;1.40;1.30;;;;;;;2.68;100.00;98949.81;5051431;28;20179;-77
2022/11/18 06:41:00;;;;;;;4.13;1.73;;;;;;;2.70;100.00;98947.63;5051377;28;20198;-78
2022/11/18 06:43:40;;;;;;;2.43;2.23;;;;;;;2.68;100.00;98945.22;5051227;28;20693;-78
2022/11/18 06:48:52;;;;;;;6.00;4.13;;;;;;;2.60;100.00;98945.91;5051483;28;20178;-77
2022/11/18 06:51:17;;;;;;;7.73;4.20;;;;;;;2.60;100.00;98948.63;5051180;28;20167;-80
2022/11/18 06:53:43;;;;;;;1.97;1.87;;;;;;;2.62;100.00;98961.78;5050783;28;20682;-80
2022/11/18 06:56:14;;;;;;;4.07;2.93;;;;;;;2.59;100.00;98963.16;5051543;28;20179;-78
2022/11/18 06:58:39;;;;;;;2.73;2.20;;;;;;;2.59;100.00;98962.34;5051239;28;20217;-77
2022/11/18 07:01:20;;;;;;;4.47;3.37;;;;;;;2.61;100.00;98968.28;5050391;28;20581;-79
2022/11/18 07:03:46;;;;;;;5.43;4.97;;;;;;;2.53;100.00;98971.63;5051198;28;20171;-77
2022/11/18 07:06:14;;;;;;;6.00;3.37;;;;;;;2.51;100.00;98966.53;5051203;28;20236;-79
2022/11/18 07:08:41;;;;;;;13.63;5.00;;;;;;;2.49;100.00;98979.53;5050842;28;20281;-79
2022/11/18 07:11:10;;;;;;;2.03;1.93;;;;;;;2.51;100.00;98971.13;5050826;28;20190;-78
2022/11/18 07:13:35;;;;;;;4.00;3.60;;;;;;;2.52;100.00;98973.53;5050567;28;20673;-77
2022/11/18 07:16:06;;;;;;;3.20;2.63;;;;;;;2.46;100.00;98980.13;5050612;28;20211;-79
2022/11/18 07:18:33;;;;;;;2.20;2.07;;;;;;;2.45;100.00;98989.25;5050828;28;20182;-78
2022/11/18 07:21:02;;;;;;;4.43;3.30;;;;;;;2.46;100.00;98985.50;5050872;28;20178;-77
2022/11/18 07:23:30;;;;;;;1.60;1.50;;;;;;;2.49;100.00;98992.19;5050680;28;20176;-76
2022/11/18 07:25:55;;;;;;;0.93;0.93;;;;;;;2.46;100.00;98992.75;5050611;28;20512;-77
2022/11/18 07:28:20;;;;;;;12.20;5.77;;;;;;;2.45;100.00;98997.34;5051000;28;20168;-77
2022/11/18 07:30:46;;;;;;;5.23;3.50;;;;;;;2.42;100.00;98997.16;5050639;28;20225;-77
2022/11/18 07:33:11;;;;;;;4.60;4.07;;;;;;;2.34;100.00;99002.13;5050489;28;20195;-76
2022/11/18 07:35:36;;;;;;;1.10;1.07;;;;;;;2.40;100.00;99005.53;5050891;28;20485;-77
2022/11/18 07:38:02;;;;;;;6.47;4.80;;;;;;;2.39;100.00;99004.72;5050639;28;20225;-77
2022/11/18 07:40:27;;;;;;;5.20;2.90;;;;;;;2.36;100.00;99010.72;5050617;28;20658;-79
2022/11/18 07:42:52;;;;;;;13.43;9.03;;;;;;;2.30;100.00;99008.38;5050394;28;20175;-80
2022/11/18 07:45:18;;;;;;;12.87;5.63;;;;;;;2.32;100.00;99009.69;5050849;28;20717;-80
2022/11/18 07:47:43;;;;;;;10.93;7.37;;;;;;;2.32;100.00;99016.97;5050505;28;20163;-77
2022/11/18 07:50:08;;;;;;;7.43;4.27;;;;;;;2.29;100.00;99022.94;5050368;28;20187;-79
2022/11/18 07:52:33;;;;;;;4.13;1.23;;;;;;;2.31;100.00;99026.94;5050161;28;20197;-78
2022/11/18 07:54:59;;;;;;;6.60;4.87;;;;;;;2.23;100.00;99034.88;5050415;28;20176;-79
2022/11/18 07:57:24;;;;;;;11.47;6.13;;;;;;;2.19;100.00;99044.66;5032560;28;20186;-79
2022/11/18 07:59:49;;;;;;;4.53;3.53;;;;;;;2.13;100.00;99043.91;5050388;28;20175;-77
2022/11/18 08:02:15;;;;;;;4.00;3.53;;;;;;;2.20;100.00;99052.44;5050294;28;20172;-77
2022/11/18 08:04:40;;;;;;;4.47;3.03;;;;;;;2.14;100.00;99050.88;5050240;28;20245;-79
2022/11/18 08:07:08;;;;;;;2.40;2.27;;;;;;;2.14;100.00;99053.59;5032439;28;20532;-78
2022/11/18 08:09:33;;;;;;;3.53;3.00;;;;;;;2.08;100.00;99050.16;5050109;28;20668;-78
2022/11/18 08:11:59;;;;;;;7.87;5.80;;;;;;;2.05;100.00;99058.84;5033016;28;20182;-79
2022/11/18 08:14:26;;;;;;;9.33;3.53;;;;;;;2.04;100.00;99054.53;5054096;28;20199;-78
2022/11/18 08:16:51;;;;;;;8.20;6.80;;;;;;;2.00;100.00;99060.78;5036215;28;20175;-78
2022/11/18 08:19:16;;;;;;;4.37;3.90;;;;;;;2.04;100.00;99061.81;5053960;28;20631;-77
2022/11/18 08:21:42;;;;;;;2.30;1.83;;;;;;;2.11;100.00;99074.91;5053883;28;20171;-77
2022/11/18 08:24:08;;;;;;;12.60;8.47;;;;;;;2.05;100.00;99068.81;5051123;28;20171;-79
2022/11/18 08:26:34;;;;;;;4.30;2.40;;;;;;;2.00;100.00;99082.31;5052033;28;20185;-79
2022/11/18 08:29:00;;;;;;;9.03;7.33;;;;;;;1.96;100.00;99079.41;5053643;28;20171;-75
2022/11/18 08:31:27;;;;;;;1.87;1.73;;;;;;;2.03;100.00;99081.75;5047047;28;20171;-77
2022/11/18 08:34:01;;;;;;;3.37;3.17;;;;;;;2.02;100.00;99082.81;5064455;28;20247;-79
2022/11/18 08:36:28;;;;;;;14.50;8.00;;;;;;;1.92;100.00;99082.97;5062682;28;20172;-79
2022/11/18 08:38:58;;;;;;;10.97;4.70;;;;;;;1.92;100.00;99097.25;5063731;28;20167;-78
2022/11/18 08:41:31;;;;;;;8.27;5.43;;;;;;;1.82;100.00;99100.03;5058977;28;20179;-79
2022/11/18 08:43:56;;;;;;;14.50;7.17;;;;;;;1.81;100.00;99101.13;5053146;28;20278;-77
2022/11/18 08:46:22;;;;;;;17.20;10.90;;;;;;;1.76;100.00;99106.59;5053628;28;20254;-80
2022/11/18 08:48:47;;;;;;;11.50;8.50;;;;;;;1.82;100.00;99110.00;5053391;28;20282;-78
2022/11/18 08:51:14;;;;;;;13.13;7.63;;;;;;;1.69;100.00;99120.38;5053708;28;20181;-78
2022/11/18 08:53:39;;;;;;;17.90;7.60;;;;;;;1.75;100.00;99110.38;5053509;28;20206;-78
2022/11/18 08:56:05;;;;;;;10.53;7.37;;;;;;;1.75;100.00;99123.81;5053512;28;20178;-77
2022/11/18 08:58:30;;;;;;;9.17;6.20;;;;;;;1.73;100.00;99120.59;5053409;28;20264;-78
2022/11/18 09:00:56;;;;;;;11.20;4.63;;;;;;;1.80;100.00;99123.75;5053648;28;20179;-79
2022/11/18 09:03:22;;;;;;;15.00;6.40;;;;;;;1.71;100.00;99134.34;5053165;28;20603;-78
2022/11/18 09:05:48;;;;;;;30.30;10.23;;;;;;;1.73;100.00;99128.66;5053128;28;20266;-78
2022/11/18 09:08:14;;;;;;;14.47;6.37;;;;;;;1.77;100.00;99135.09;5053096;28;20247;-78
2022/11/18 09:10:39;;;;;;;6.37;3.00;;;;;;;1.85;100.00;99133.66;5052950;28;20187;-79
2022/11/18 09:13:05;;;;;;;2.00;1.90;;;;;;;1.75;100.00;99145.38;5051347;28;20658;-76
2022/11/18 09:15:30;;;;;;;5.67;5.13;;;;;;;1.81;100.00;99144.22;5052734;28;20175;-79
2022/11/18 09:17:56;;;;;;;1.70;1.60;;;;;;;1.82;100.00;99147.72;5052806;28;20170;-80
2022/11/18 09:20:22;;;;;;;4.80;4.40;;;;;;;1.73;100.00;99151.00;5052803;28;20171;-80
2022/11/18 09:22:47;;;;;;;10.87;6.77;;;;;;;1.65;100.00;99153.53;5052534;28;20167;-77
2022/11/18 09:25:13;;;;;;;13.90;8.57;;;;;;;1.64;100.00;99160.81;5051652;28;20627;-80
2022/11/18 09:27:38;;;;;;;18.63;9.30;;;;;;;1.65;100.00;99159.72;5052574;28;20180;-78
2022/11/18 09:30:04;;;;;;;7.27;4.20;;;;;;;1.65;100.00;99167.00;5052528;28;20181;-79
2022/11/18 09:32:31;;;;;;;3.07;2.87;;;;;;;1.65;100.00;99169.69;5052325;28;20788;-79
2022/11/18 09:34:56;;;;;;;8.07;3.40;;;;;;;1.65;100.00;99180.44;5052334;28;20417;-79
2022/11/18 09:37:22;;;;;;;11.60;7.30;;;;;;;1.61;100.00;99169.47;5052232;28;20187;-79
2022/11/18 09:39:47;;;;;;;7.87;6.17;;;;;;;1.58;100.00;99183.47;5052369;28;20629;-78
2022/11/18 09:42:56;;;;;;;7.03;6.33;;;;;;;1.56;100.00;99190.22;5034515;28;20187;-80
2022/11/18 09:45:29;;;;;;;7.53;6.10;;;;;;;1.47;100.00;99192.72;4990361;28;20792;-81
2022/11/18 09:48:02;;;;;;;24.37;11.37;;;;;;;1.48;100.00;99197.81;5028288;28;20933;-82
2022/11/18 09:50:27;;;;;;;15.53;8.60;;;;;;;1.45;100.00;99201.09;5052151;28;20175;-83
2022/11/18 09:53:21;;;;;;;13.00;6.40;;;;;;;1.45;100.00;99202.97;5051856;28;20210;-82
2022/11/18 09:55:48;;;;;;;8.70;6.17;;;;;;;1.42;100.00;99198.13;5052023;28;20171;-82
2022/11/18 09:58:19;;;;;;;2.53;2.33;;;;;;;1.43;100.00;99211.31;5051827;28;20643;-80
2022/11/18 10:00:45;;;;;;;10.03;6.43;;;;;;;1.50;100.00;99208.31;5052001;28;20205;-80
2022/11/18 10:03:31;;;;;;;9.57;7.57;;;;;;;1.44;100.00;99204.03;5035184;28;20198;-79
2022/11/18 10:06:10;;;;;;;16.67;10.43;;;;;;;1.44;100.00;99209.41;5051799;28;20250;-79
2022/11/18 10:08:48;;;;;;;5.30;4.40;;;;;;;1.37;100.00;99217.03;5051599;28;20646;-80
2022/11/18 10:11:18;;;;;;;3.03;2.80;;;;;;;1.39;100.00;99214.84;5051731;28;20186;-81
2022/11/18 10:14:07;;;;;;;12.83;6.23;;;;;;;1.37;100.00;99235.84;5051779;28;20245;-80
2022/11/18 10:16:44;;;;;;;4.87;4.47;;;;;;;1.38;100.00;99240.94;5051437;28;20175;-79
2022/11/18 10:19:22;;;;;;;3.17;2.97;;;;;;;1.37;100.00;99238.53;5051479;28;20671;-80
2022/11/18 10:22:15;;;;;;;9.87;8.27;;;;;;;1.38;100.00;99242.84;5051643;28;20167;-80
2022/11/18 10:24:55;;;;;;;7.10;6.03;;;;;;;1.33;100.00;99253.66;5051360;28;20175;-81
2022/11/18 10:27:22;;;;;;;13.17;8.20;;;;;;;1.29;100.00;99255.28;5051400;28;20175;-81
2022/11/18 10:29:52;;;;;;;43.03;9.17;;;;;;;1.28;100.00;99259.84;5050059;28;20426;-81
2022/11/18 10:32:18;;;;;;;21.40;13.53;;;;;;;1.16;100.00;99262.91;5051373;28;20653;-81
2022/11/18 10:34:55;;;;;;;27.33;11.60;;;;;;;1.14;100.00;99265.03;5051206;28;20718;-81
2022/11/18 10:37:29;;;;;;;8.73;6.90;;;;;;;1.13;100.00;99271.50;5051686;28;20767;-80
2022/11/18 10:40:00;;;;;;;4.53;4.13;;;;;;;1.18;100.00;99273.38;5051241;28;20163;-80
2022/11/18 10:42:28;;;;;;;22.67;11.50;;;;;;;1.19;100.00;99281.16;5051332;28;20178;-77
2022/11/18 10:44:54;;;;;;;6.00;3.80;;;;;;;1.13;100.00;99282.28;5036339;28;20178;-81
2022/11/18 10:47:27;;;;;;;3.90;3.40;;;;;;;1.15;100.00;99284.69;5050963;28;20536;-80
2022/11/18 10:49:55;;;;;;;9.33;6.73;;;;;;;1.10;100.00;99284.72;5051050;28;20179;-81
2022/11/18 10:52:20;;;;;;;7.43;4.50;;;;;;;1.08;100.00;99286.88;5051026;28;20523;-82
2022/11/18 10:55:06;;;;;;;7.33;5.87;;;;;;;1.12;100.00;99286.03;5050794;28;20209;-82
2022/11/18 10:57:37;;;;;;;4.83;3.23;;;;;;;1.17;100.00;99288.72;5032998;28;20483;-80
2022/11/18 11:00:04;;;;;;;5.03;3.70;;;;;;;1.10;100.00;99298.97;5051008;28;20429;-81
2022/11/18 11:02:38;;;;;;;4.60;4.20;;;;;;;1.08;100.00;99305.72;5051042;28;20175;-82
2022/11/18 11:05:37;;;;;;;5.03;4.63;;;;;;;1.08;100.00;99298.44;5050751;28;20199;-78
2022/11/18 11:08:05;;;;;;;6.60;2.60;;;;;;;1.08;100.00;99303.81;5016844;28;20241;-78
2022/11/18 11:10:30;;;;;;;6.37;4.93;;;;;;;1.12;100.00;99298.69;5032592;28;20607;-84
2022/11/18 11:13:09;;;;;;;6.60;4.63;;;;;;;1.08;100.00;99311.88;5032432;28;20206;-85
2022/11/18 11:15:39;;;;;;;12.60;6.53;;;;;;;1.06;100.00;99314.06;5050475;28;20167;-84
2022/11/18 11:20:55;;;;;;;11.40;7.93;;;;;;;1.06;100.00;99316.75;5050651;28;20240;-81
2022/11/18 11:23:22;;;;;;;17.77;10.53;;;;;;;0.94;100.00;99320.84;5049865;28;20175;-83
2022/11/18 11:25:48;;;;;;;11.50;7.40;;;;;;;0.97;100.00;99325.66;5050124;28;20171;-82
2022/11/18 11:28:44;;;;;;;6.17;5.73;;;;;;;0.93;100.00;99329.97;5050173;28;20905;-77
2022/11/18 11:31:42;;;;;;;2.33;1.93;;;;;;;0.91;100.00;99338.31;5050206;28;20662;-76
2022/11/18 11:34:27;;;;;;;11.07;8.40;;;;;;;0.93;100.00;99335.34;5051698;28;20492;-77
2022/11/18 11:37:05;;;;;;;6.40;4.63;;;;;;;0.97;100.00;99342.59;5050578;28;20525;-76
2022/11/18 11:39:52;;;;;;;10.57;6.93;;;;;;;0.89;100.00;99332.44;5050295;28;20186;-78
2022/11/18 11:42:36;;;;;;;14.00;10.20;;;;;;;0.83;100.00;99353.13;5050769;28;20185;-80
2022/11/18 11:45:31;;;;;;;7.57;5.20;;;;;;;0.84;100.00;99343.97;5050424;28;20175;-78
2022/11/18 11:48:08;;;;;;;14.73;10.63;;;;;;;0.75;100.00;99355.59;5052789;28;20190;-77
2022/11/18 11:50:53;;;;;;;15.40;10.10;;;;;;;0.75;100.00;99359.09;5054332;28;20432;-76
2022/11/18 11:53:56;;;;;;;25.10;13.43;;;;;;;0.77;100.00;99369.56;5054117;28;20734;-75
2022/11/18 11:56:43;;;;;;;4.97;4.50;;;;;;;0.84;100.00;99362.00;5054275;28;20417;-76
2022/11/18 11:59:58;;;;;;;6.53;5.87;;;;;;;0.76;100.00;99355.31;5054501;28;20758;-79
2022/11/18 12:02:43;;;;;;;11.27;5.23;;;;;;;0.77;100.00;99373.06;4993721;28;20187;-77